Time;durP1;ratioP1;P1;durP2;ratioP2;P2;SDS_P1;SDS_P2;PMS_P1;PMS_P2;Temp;Humidity;BMP_temperature;BMP_pressure;BME280_temperature;BME280_humidity;BME280_pressure;Samples;Min_cycle;Max_cycle;Signal;HPM_P1;HPM_P2
2022/01/15 00:00:54;;;;;;;7.43;3.45;;;;;;;4.85;63.80;100034.78;5070533;28;20024;-20
2022/01/15 00:03:19;;;;;;;6.18;2.92;;;;;;;5.23;62.22;100026.72;5088578;28;20039;-21
2022/01/15 00:05:45;;;;;;;6.40;2.30;;;;;;;5.58;61.81;100024.28;5088706;28;20031;-20
2022/01/15 00:08:11;;;;;;;6.28;2.78;;;;;;;5.61;60.53;100011.47;5088659;28;20040;-20
2022/01/15 00:10:36;;;;;;;6.05;2.83;;;;;;;5.70;59.99;99990.19;5088513;28;20024;-21
2022/01/15 00:13:02;;;;;;;8.02;2.92;;;;;;;5.94;60.12;100003.03;5070259;28;20032;-20
2022/01/15 00:15:39;;;;;;;5.78;2.75;;;;;;;6.07;59.20;100033.31;5088306;28;20518;-20
2022/01/15 00:18:10;;;;;;;6.78;2.72;;;;;;;6.01;59.51;100009.28;5041611;28;1330644;-20
2022/01/15 00:20:36;;;;;;;6.28;2.90;;;;;;;6.12;59.07;100023.81;5089335;28;20032;-20
2022/01/15 00:23:01;;;;;;;7.25;3.00;;;;;;;6.02;59.42;100015.38;5089438;28;20113;-19
2022/01/15 00:25:28;;;;;;;6.63;3.30;;;;;;;6.06;58.93;100032.50;5089713;28;20039;-20
2022/01/15 00:27:53;;;;;;;6.25;2.97;;;;;;;6.08;59.63;100034.97;5070985;28;20529;-20
2022/01/15 00:30:19;;;;;;;7.65;3.38;;;;;;;6.15;59.99;100033.19;5088994;28;20559;-19
2022/01/15 00:32:45;;;;;;;7.35;3.08;;;;;;;6.05;60.20;100033.53;5089175;28;20032;-20
2022/01/15 00:35:12;;;;;;;6.25;2.67;;;;;;;6.02;59.59;100036.56;5088557;28;20035;-20
2022/01/15 00:37:39;;;;;;;6.50;3.10;;;;;;;6.04;59.59;100042.47;5089319;28;20032;-20
2022/01/15 00:40:06;;;;;;;7.50;3.00;;;;;;;6.06;60.01;100037.81;5070971;28;20415;-19
2022/01/15 00:42:34;;;;;;;6.40;3.28;;;;;;;6.10;59.67;100051.50;5070869;28;20028;-19
2022/01/15 00:45:01;;;;;;;6.10;3.00;;;;;;;6.17;59.54;100063.78;5070815;28;20028;-19
2022/01/15 00:47:31;;;;;;;7.82;3.42;;;;;;;6.14;59.44;100060.69;5088893;28;20031;-19
2022/01/15 00:50:00;;;;;;;5.63;2.85;;;;;;;6.20;58.91;100073.19;5088258;28;20115;-19
2022/01/15 00:52:25;;;;;;;5.25;2.53;;;;;;;6.15;59.34;100083.50;5088691;28;20093;-20
2022/01/15 00:54:50;;;;;;;6.15;3.00;;;;;;;6.20;59.03;100073.19;5088854;28;20415;-19
2022/01/15 00:57:16;;;;;;;6.90;3.42;;;;;;;6.18;59.74;100065.41;5088161;28;20051;-19
2022/01/15 00:59:41;;;;;;;7.88;3.47;;;;;;;6.13;59.43;100080.22;5088670;28;20261;-19
2022/01/15 01:02:07;;;;;;;6.55;2.80;;;;;;;6.19;59.25;100082.13;5088338;28;20035;-19
2022/01/15 01:04:32;;;;;;;6.15;2.60;;;;;;;6.13;59.87;100070.47;5088697;28;20039;-20
2022/01/15 01:06:58;;;;;;;6.07;3.00;;;;;;;6.18;59.62;100072.53;5088156;28;20135;-20
2022/01/15 01:09:28;;;;;;;6.07;3.03;;;;;;;6.13;59.94;100067.81;5088219;28;20036;-20
2022/01/15 01:11:58;;;;;;;7.07;3.33;;;;;;;6.19;59.74;100068.88;5088369;28;20503;-20
2022/01/15 01:20:09;;;;;;;7.70;3.20;;;;;;;6.17;60.30;100078.84;5088283;28;20067;-19
2022/01/15 01:22:55;;;;;;;5.72;2.90;;;;;;;6.17;59.74;100100.03;5088152;28;20134;-20
2022/01/15 01:25:22;;;;;;;5.63;2.78;;;;;;;6.15;60.40;100079.06;5088726;28;20027;-20
2022/01/15 01:27:52;;;;;;;6.47;3.20;;;;;;;6.16;59.91;100096.56;5088114;28;20036;-20
2022/01/15 01:32:49;;;;;;;6.07;3.10;;;;;;;6.12;60.84;100094.50;5088088;28;20120;-19
2022/01/15 01:35:29;;;;;;;6.22;2.67;;;;;;;6.08;60.64;100106.47;5087926;28;20031;-19
2022/01/15 01:37:58;;;;;;;6.60;3.03;;;;;;;5.99;61.37;100106.59;5072205;28;20507;-19
2022/01/15 01:40:31;;;;;;;7.40;3.88;;;;;;;6.01;60.94;100101.91;5088078;28;20043;-20
2022/01/15 01:43:47;;;;;;;6.53;2.55;;;;;;;6.02;60.92;100119.44;5087908;28;20045;-20
2022/01/15 01:45:47;;;;;;;7.95;3.10;;;;;;;5.95;61.77;100105.31;5076175;28;20108;-20
2022/01/15 01:48:13;;;;;;;6.05;3.28;;;;;;;5.91;61.23;100098.72;5087827;28;20032;-19
2022/01/15 01:50:38;;;;;;;6.05;3.08;;;;;;;6.07;60.80;100120.69;5087944;28;20071;-20
2022/01/15 01:53:04;;;;;;;6.97;2.90;;;;;;;6.06;60.81;100108.47;5069102;28;20032;-20
2022/01/15 01:55:29;;;;;;;7.20;3.10;;;;;;;6.12;61.26;100126.25;5052819;28;20032;-20
2022/01/15 01:57:55;;;;;;;5.57;2.47;;;;;;;6.09;60.73;100127.47;5087605;28;20032;-19
2022/01/15 02:00:22;;;;;;;7.28;3.20;;;;;;;6.03;61.00;100115.78;5069330;28;20039;-20
2022/01/15 02:02:48;;;;;;;6.28;2.80;;;;;;;5.88;61.00;100112.31;5087629;28;20027;-20
2022/01/15 02:05:13;;;;;;;7.00;3.28;;;;;;;5.83;62.05;100122.66;5087329;28;20559;-21
2022/01/15 02:07:43;;;;;;;7.32;4.05;;;;;;;5.86;61.96;100124.09;5087768;28;20040;-20
2022/01/15 02:10:11;;;;;;;6.50;2.95;;;;;;;5.93;61.79;100139.06;5087610;28;20119;-20
2022/01/15 02:12:37;;;;;;;6.70;2.80;;;;;;;5.89;61.96;100129.84;5087788;28;20500;-20
2022/01/15 02:15:10;;;;;;;6.63;3.35;;;;;;;5.80;62.22;100146.84;5087058;28;20081;-19
2022/01/15 02:17:36;;;;;;;7.25;3.53;;;;;;;5.83;62.10;100171.13;5087723;28;20032;-20
2022/01/15 02:20:34;;;;;;;6.65;3.88;;;;;;;5.78;62.50;100157.63;5087163;28;20082;-20
2022/01/15 02:25:46;;;;;;;6.50;3.05;;;;;;;5.64;62.45;100175.16;5087617;28;20096;-20
2022/01/15 02:28:12;;;;;;;8.45;3.88;;;;;;;5.69;63.48;100168.50;5087189;28;20032;-20
2022/01/15 02:30:37;;;;;;;7.78;3.38;;;;;;;5.64;63.01;100156.63;5087642;28;20070;-19
2022/01/15 02:33:04;;;;;;;7.13;3.25;;;;;;;5.80;62.73;100173.31;5086890;28;20028;-20
2022/01/15 02:35:29;;;;;;;6.90;3.53;;;;;;;5.69;63.40;100187.03;5087345;28;20043;-19
2022/01/15 02:38:00;;;;;;;6.65;3.80;;;;;;;5.64;63.52;100204.25;5087061;28;20032;-20
2022/01/15 02:40:25;;;;;;;7.18;3.08;;;;;;;5.46;64.05;100179.19;5069140;28;20055;-20
2022/01/15 02:42:51;;;;;;;7.63;3.80;;;;;;;5.46;64.59;100190.59;5087227;28;20483;-20
2022/01/15 02:45:22;;;;;;;7.38;3.60;;;;;;;5.58;63.87;100207.66;5087001;28;20085;-20
2022/01/15 02:48:02;;;;;;;8.27;3.22;;;;;;;5.63;64.30;100202.59;5087266;28;20462;-20
2022/01/15 02:50:29;;;;;;;7.90;3.85;;;;;;;5.59;64.02;100198.69;5086865;28;20035;-20
2022/01/15 02:52:54;;;;;;;7.18;3.70;;;;;;;5.61;64.17;100196.69;5087247;28;20024;-19
2022/01/15 02:55:20;;;;;;;8.68;3.63;;;;;;;5.55;64.41;100193.94;5086702;28;20039;-21
2022/01/15 02:57:45;;;;;;;7.63;3.67;;;;;;;5.54;64.55;100190.50;5087115;28;20031;-20
2022/01/15 03:00:11;;;;;;;8.57;4.50;;;;;;;5.47;64.89;100192.22;5086876;28;20043;-20
2022/01/15 03:02:37;;;;;;;9.30;3.65;;;;;;;5.47;64.49;100175.53;5068787;28;20055;-20
2022/01/15 03:05:02;;;;;;;9.43;4.22;;;;;;;5.49;65.10;100173.53;5086480;28;20404;-20
2022/01/15 03:07:28;;;;;;;10.10;3.88;;;;;;;5.42;64.67;100168.16;5087520;28;20025;-19
2022/01/15 03:09:53;;;;;;;9.65;4.43;;;;;;;5.47;65.34;100165.75;5068897;28;20522;-19
2022/01/15 03:12:19;;;;;;;8.82;4.47;;;;;;;5.49;64.91;100168.22;5088866;28;20089;-19
2022/01/15 03:14:47;;;;;;;8.45;4.40;;;;;;;5.35;65.53;100183.09;5090736;28;20032;-20
2022/01/15 03:17:12;;;;;;;8.75;4.40;;;;;;;5.44;65.39;100176.72;5072492;28;20081;-20
2022/01/15 03:19:38;;;;;;;8.05;4.25;;;;;;;5.27;66.38;100180.53;5090398;28;20052;-19
2022/01/15 03:22:03;;;;;;;6.47;3.55;;;;;;;5.13;66.45;100163.66;5072269;28;20038;-20
2022/01/15 03:24:29;;;;;;;8.50;4.10;;;;;;;5.10;67.33;100164.84;5090659;28;20027;-19
2022/01/15 03:26:54;;;;;;;9.30;4.25;;;;;;;5.10;66.88;100185.16;5090917;28;20189;-20
2022/01/15 03:29:20;;;;;;;8.38;4.28;;;;;;;5.13;66.36;100196.22;5090374;28;20120;-20
2022/01/15 03:31:45;;;;;;;9.18;4.60;;;;;;;5.23;67.04;100204.72;5071991;28;20035;-19
2022/01/15 03:34:11;;;;;;;7.80;4.28;;;;;;;5.27;66.93;100228.13;5090471;28;20043;-20
2022/01/15 03:36:36;;;;;;;8.48;4.03;;;;;;;5.30;66.43;100227.78;5090485;28;20028;-20
2022/01/15 03:39:02;;;;;;;8.48;4.20;;;;;;;5.42;65.95;100226.34;5090106;28;20040;-20
2022/01/15 03:41:27;;;;;;;9.85;4.18;;;;;;;5.47;65.99;100239.81;5090160;28;20461;-19
2022/01/15 03:43:53;;;;;;;7.85;3.90;;;;;;;5.41;65.21;100238.75;5090111;28;20036;-20
2022/01/15 03:46:20;;;;;;;7.53;3.25;;;;;;;5.26;65.27;100226.50;5090156;28;20050;-20
2022/01/15 03:48:47;;;;;;;6.38;3.03;;;;;;;5.33;65.94;100235.34;5089824;28;20036;-19
2022/01/15 03:51:13;;;;;;;7.50;3.78;;;;;;;5.26;67.00;100250.28;5090124;28;20040;-20
2022/01/15 03:53:38;;;;;;;7.13;3.33;;;;;;;5.28;66.71;100256.22;5089839;28;20038;-20
2022/01/15 03:56:04;;;;;;;8.88;5.13;;;;;;;5.23;67.19;100265.50;5089687;28;20035;-20
2022/01/15 03:58:30;;;;;;;9.90;4.47;;;;;;;5.22;67.01;100274.44;5071647;28;20069;-20
2022/01/15 04:00:55;;;;;;;9.65;4.68;;;;;;;5.21;67.18;100256.94;5089768;28;20032;-19
2022/01/15 04:03:20;;;;;;;8.60;4.13;;;;;;;5.10;67.35;100260.00;5089460;28;20044;-19
2022/01/15 04:05:46;;;;;;;9.13;4.57;;;;;;;5.11;67.84;100288.09;5089670;28;20039;-20
2022/01/15 04:08:11;;;;;;;9.25;4.47;;;;;;;5.15;67.26;100286.75;5071549;28;20499;-20
2022/01/15 04:10:37;;;;;;;6.85;3.90;;;;;;;5.08;66.90;100280.50;5089430;28;20055;-20
2022/01/15 04:13:02;;;;;;;7.60;4.45;;;;;;;5.29;67.31;100313.38;5071093;28;20078;-20
2022/01/15 04:15:28;;;;;;;8.20;3.80;;;;;;;5.46;66.36;100320.19;5089536;28;20035;-20
2022/01/15 04:17:54;;;;;;;9.05;4.65;;;;;;;5.56;65.23;100323.41;5089546;28;20063;-22
2022/01/15 04:20:21;;;;;;;11.20;6.05;;;;;;;5.89;65.09;100346.91;5089211;28;20527;-20
2022/01/15 04:22:47;;;;;;;12.30;6.50;;;;;;;5.85;65.29;100348.25;5070564;28;20067;-19
2022/01/15 04:25:13;;;;;;;24.75;14.85;;;;;;;5.33;66.97;100367.56;5088726;28;20764;-19
2022/01/15 04:27:39;;;;;;;23.85;14.60;;;;;;;5.16;65.96;100346.53;5089236;28;20043;-21
2022/01/15 04:30:06;;;;;;;31.13;19.13;;;;;;;4.89;66.90;100368.22;5089211;28;20419;-20
2022/01/15 04:32:32;;;;;;;29.80;22.57;;;;;;;4.96;66.20;100369.94;5089166;28;20028;-21
2022/01/15 04:34:58;;;;;;;25.88;22.02;;;;;;;5.08;66.40;100378.31;5087851;28;20702;-20
2022/01/15 04:37:24;;;;;;;24.85;20.27;;;;;;;5.28;65.61;100368.09;5087673;28;20069;-20
2022/01/15 04:39:51;;;;;;;20.88;14.95;;;;;;;5.26;66.17;100379.88;5089042;28;20032;-20
2022/01/15 04:42:20;;;;;;;25.50;18.50;;;;;;;5.64;65.29;100388.66;5070926;28;20027;-20
2022/01/15 04:44:46;;;;;;;22.08;14.52;;;;;;;5.69;65.29;100390.75;5071068;28;20479;-20
2022/01/15 04:47:11;;;;;;;19.75;13.73;;;;;;;5.76;64.50;100404.91;5088671;28;20085;-20
2022/01/15 04:49:37;;;;;;;37.60;21.58;;;;;;;5.42;66.13;100406.19;5088940;28;20035;-19
2022/01/15 04:52:03;;;;;;;54.47;34.00;;;;;;;5.70;65.41;100417.06;5088996;28;20057;-19
2022/01/15 04:54:28;;;;;;;38.85;24.10;;;;;;;5.66;66.14;100422.84;5070716;28;20077;-20
2022/01/15 04:56:54;;;;;;;24.33;14.98;;;;;;;5.97;64.70;100430.75;5088811;28;20059;-20
2022/01/15 04:59:20;;;;;;;17.00;10.38;;;;;;;5.79;64.70;100429.19;5088571;28;20040;-20
2022/01/15 05:01:46;;;;;;;14.13;8.25;;;;;;;5.31;66.79;100411.88;5088327;28;20023;-20
2022/01/15 05:04:11;;;;;;;31.52;15.93;;;;;;;5.17;67.48;100443.38;5088941;28;20032;-20
2022/01/15 05:06:37;;;;;;;28.30;15.77;;;;;;;4.93;67.54;100422.38;5088402;28;20031;-20
2022/01/15 05:09:05;;;;;;;21.63;12.32;;;;;;;5.56;66.44;100439.81;5070171;28;20046;-20
2022/01/15 05:11:45;;;;;;;17.33;11.23;;;;;;;5.87;64.88;100440.72;5088469;28;20396;-20
2022/01/15 05:14:11;;;;;;;20.50;9.65;;;;;;;6.09;64.27;100428.47;5088205;28;20036;-21
2022/01/15 05:16:37;;;;;;;19.30;10.57;;;;;;;5.98;64.52;100449.06;5088468;28;20028;-19
2022/01/15 05:19:03;;;;;;;16.75;10.02;;;;;;;6.09;64.44;100450.50;5069752;28;20078;-19
2022/01/15 05:21:29;;;;;;;17.50;9.93;;;;;;;6.27;63.81;100447.47;5088374;28;20629;-20
2022/01/15 05:23:54;;;;;;;15.23;7.53;;;;;;;5.65;65.19;100453.78;5088158;28;20435;-20
2022/01/15 05:26:19;;;;;;;13.77;7.05;;;;;;;5.82;64.77;100460.63;5088105;28;20043;-21
2022/01/15 05:28:45;;;;;;;16.13;8.00;;;;;;;6.15;64.59;100464.81;5088252;28;20035;-19
2022/01/15 05:31:10;;;;;;;15.23;8.52;;;;;;;5.92;65.90;100470.94;5087888;28;20023;-20
2022/01/15 05:33:36;;;;;;;20.50;9.50;;;;;;;5.62;67.27;100465.56;5088094;28;20552;-20
2022/01/15 05:36:01;;;;;;;20.27;11.45;;;;;;;5.32;67.96;100459.31;5087721;28;20028;-20
2022/01/15 05:38:27;;;;;;;31.83;14.45;;;;;;;5.63;67.10;100477.78;5087810;28;20093;-20
2022/01/15 05:40:52;;;;;;;14.00;7.45;;;;;;;6.14;64.90;100492.31;5087913;28;20064;-19
2022/01/15 05:43:18;;;;;;;17.45;9.30;;;;;;;5.98;65.61;100498.56;5087512;28;20060;-20
2022/01/15 05:45:43;;;;;;;55.50;28.48;;;;;;;5.88;65.85;100506.69;5087766;28;20032;-21
2022/01/15 05:48:09;;;;;;;49.83;26.55;;;;;;;5.76;66.37;100501.03;5069880;28;20756;-19
2022/01/15 05:50:34;;;;;;;38.35;24.75;;;;;;;5.15;68.96;100494.75;5087543;28;20028;-19
2022/01/15 05:53:00;;;;;;;94.70;58.58;;;;;;;5.22;68.44;100491.25;5069359;28;20467;-20
2022/01/15 05:55:25;;;;;;;35.58;22.05;;;;;;;5.28;69.23;100499.50;5087646;28;20039;-20
2022/01/15 05:57:51;;;;;;;47.47;25.58;;;;;;;5.33;68.87;100508.56;5087600;28;20054;-19
2022/01/15 06:00:16;;;;;;;40.25;22.60;;;;;;;5.58;67.27;100511.06;5087329;28;20411;-20
2022/01/15 06:02:42;;;;;;;51.92;28.25;;;;;;;5.56;67.83;100513.88;5087728;28;20028;-19
2022/01/15 06:05:08;;;;;;;42.38;23.80;;;;;;;5.71;67.60;100523.72;5087288;28;20039;-21
2022/01/15 06:07:33;;;;;;;52.88;30.13;;;;;;;5.88;66.74;100532.34;5087879;28;20036;-19
2022/01/15 06:09:59;;;;;;;50.95;30.23;;;;;;;5.47;67.94;100538.72;5087312;28;20486;-20
2022/01/15 06:12:30;;;;;;;59.28;34.63;;;;;;;5.69;68.17;100544.25;5069148;28;20148;-20
2022/01/15 06:14:55;;;;;;;61.90;34.63;;;;;;;6.03;66.95;100538.56;5087525;28;20055;-21
2022/01/15 06:17:21;;;;;;;64.28;37.08;;;;;;;6.30;65.87;100534.53;5087423;28;20063;-21
2022/01/15 06:19:46;;;;;;;71.53;40.95;;;;;;;6.59;64.46;100539.06;5087467;28;20090;-19
2022/01/15 06:22:12;;;;;;;69.55;39.47;;;;;;;6.64;64.20;100544.66;5087678;28;20047;-20
2022/01/15 06:24:37;;;;;;;59.65;37.55;;;;;;;6.51;63.72;100533.03;5087509;28;20089;-20
2022/01/15 06:27:03;;;;;;;83.38;48.42;;;;;;;6.17;65.10;100558.13;5087185;28;20069;-20
2022/01/15 06:29:29;;;;;;;62.88;36.17;;;;;;;6.04;66.37;100559.56;5087505;28;20032;-20
2022/01/15 06:31:54;;;;;;;55.15;33.85;;;;;;;6.28;65.50;100564.88;5087508;28;20039;-20
2022/01/15 06:34:20;;;;;;;57.50;34.75;;;;;;;6.16;66.07;100564.47;5087424;28;20036;-21
2022/01/15 06:36:46;;;;;;;80.35;48.38;;;;;;;6.04;66.84;100577.28;5087486;28;20089;-20
2022/01/15 06:39:12;;;;;;;170.80;91.50;;;;;;;6.11;66.54;100585.34;5087094;28;20043;-20
2022/01/15 06:41:37;;;;;;;162.90;81.57;;;;;;;6.20;66.20;100605.47;5087298;28;20028;-20
2022/01/15 06:44:02;;;;;;;98.75;54.85;;;;;;;6.46;65.02;100604.25;5069210;28;20031;-20
2022/01/15 06:46:28;;;;;;;73.10;43.25;;;;;;;6.10;66.45;100605.69;5088550;28;20036;-20
2022/01/15 06:48:53;;;;;;;66.90;43.15;;;;;;;6.06;66.72;100591.16;5072991;28;20119;-19
2022/01/15 06:51:19;;;;;;;64.63;39.03;;;;;;;5.77;67.89;100578.59;5091049;28;20027;-19
2022/01/15 06:53:44;;;;;;;64.60;43.47;;;;;;;5.97;67.13;100605.47;5072969;28;20035;-20
2022/01/15 06:56:10;;;;;;;47.10;34.72;;;;;;;5.87;67.31;100608.31;5091003;28;20035;-20
2022/01/15 06:58:35;;;;;;;62.45;39.20;;;;;;;5.85;67.33;100615.59;5090968;28;20039;-20
2022/01/15 07:01:01;;;;;;;52.60;32.53;;;;;;;5.74;68.22;100610.69;5090858;28;20039;-19
2022/01/15 07:03:26;;;;;;;79.80;46.97;;;;;;;5.77;68.71;100627.03;5091225;28;20057;-19
2022/01/15 07:05:52;;;;;;;108.63;65.70;;;;;;;5.27;69.21;100627.41;5091345;28;20040;-19
2022/01/15 07:08:17;;;;;;;58.15;37.97;;;;;;;5.26;68.80;100596.69;5091033;28;20036;-20
2022/01/15 07:10:43;;;;;;;78.28;41.20;;;;;;;14.41;51.69;100648.28;5090604;28;20649;-20
2022/01/15 07:13:09;;;;;;;77.32;44.97;;;;;;;14.52;47.58;100630.56;5090596;28;20032;-19
2022/01/15 07:15:34;;;;;;;61.42;39.67;;;;;;;11.60;49.19;100660.69;5091310;28;20032;-19
2022/01/15 07:18:00;;;;;;;48.92;33.85;;;;;;;10.31;52.77;100659.38;5090434;28;20118;-20
2022/01/15 07:20:25;;;;;;;41.85;29.25;;;;;;;9.68;53.75;100661.41;5090686;28;20063;-20
2022/01/15 07:22:51;;;;;;;43.40;29.15;;;;;;;8.22;58.01;100649.47;5090303;28;20126;-20
2022/01/15 07:25:16;;;;;;;37.42;24.20;;;;;;;7.04;60.62;100650.47;5072015;28;20077;-20
2022/01/15 07:27:42;;;;;;;39.45;24.45;;;;;;;7.27;61.70;100670.78;5090259;28;20150;-20
2022/01/15 07:30:08;;;;;;;44.35;25.67;;;;;;;6.87;63.16;100655.09;5090551;28;20032;-21
2022/01/15 07:32:34;;;;;;;41.10;24.80;;;;;;;6.97;62.31;100644.25;5072100;28;20111;-21
2022/01/15 07:35:00;;;;;;;35.65;23.10;;;;;;;6.83;63.38;100670.53;5090135;28;20032;-20
2022/01/15 07:37:25;;;;;;;33.38;20.10;;;;;;;6.52;63.73;100677.75;5090332;28;20035;-19
2022/01/15 07:39:51;;;;;;;39.78;24.70;;;;;;;6.74;63.18;100686.69;5071986;28;20032;-20
2022/01/15 07:42:16;;;;;;;68.10;36.22;;;;;;;6.68;63.71;100696.19;5071760;28;20028;-19
2022/01/15 07:44:42;;;;;;;60.58;34.75;;;;;;;6.73;63.46;100691.16;5090095;28;20028;-20
2022/01/15 07:47:07;;;;;;;62.92;34.40;;;;;;;6.66;63.93;100682.28;5089762;28;20412;-20
2022/01/15 07:49:33;;;;;;;59.70;33.67;;;;;;;6.75;63.93;100678.56;5089880;28;20035;-20
2022/01/15 07:51:59;;;;;;;51.33;29.85;;;;;;;6.43;64.99;100696.34;5089914;28;20031;-21
2022/01/15 07:54:25;;;;;;;47.22;29.27;;;;;;;6.56;65.06;100701.09;5090110;28;20020;-19
2022/01/15 07:56:54;;;;;;;32.63;20.63;;;;;;;6.49;66.65;100701.97;5089845;28;20093;-19
2022/01/15 07:59:23;;;;;;;26.75;17.10;;;;;;;6.39;66.52;100705.66;5089859;28;20020;-20
2022/01/15 08:01:48;;;;;;;30.08;18.08;;;;;;;6.26;67.17;100694.81;5090070;28;20099;-20
2022/01/15 08:04:13;;;;;;;23.70;14.75;;;;;;;6.28;66.76;100710.53;5089738;28;20047;-20
2022/01/15 08:06:41;;;;;;;23.33;14.05;;;;;;;6.38;66.13;100711.97;5089577;28;20032;-20
2022/01/15 08:09:06;;;;;;;234.88;122.40;;;;;;;6.70;66.23;100709.25;5070947;28;20495;-20
2022/01/15 08:11:32;;;;;;;33.33;20.13;;;;;;;6.62;65.57;100710.16;5089486;28;20032;-20
2022/01/15 08:13:57;;;;;;;23.98;15.48;;;;;;;6.47;66.14;100717.22;5089781;28;20529;-20
2022/01/15 08:16:22;;;;;;;21.35;13.05;;;;;;;6.29;64.92;100720.94;5089777;28;20048;-20
2022/01/15 08:18:48;;;;;;;25.88;14.93;;;;;;;6.52;65.40;100728.09;5089323;28;20051;-20
2022/01/15 08:21:13;;;;;;;28.52;16.25;;;;;;;6.30;67.06;100717.31;5088966;28;20032;-20
2022/01/15 08:23:39;;;;;;;23.98;12.82;;;;;;;6.42;65.58;100737.09;5089055;28;20051;-20
2022/01/15 08:26:04;;;;;;;21.23;12.73;;;;;;;6.36;66.08;100732.50;5071465;28;20069;-20
2022/01/15 08:28:30;;;;;;;19.77;11.45;;;;;;;6.52;66.79;100736.03;5089427;28;20151;-20
2022/01/15 08:30:55;;;;;;;19.70;9.85;;;;;;;6.48;66.10;100740.03;5089452;28;20020;-21
2022/01/15 08:33:21;;;;;;;18.40;11.18;;;;;;;6.70;66.24;100736.59;5089503;28;20411;-21
2022/01/15 08:35:46;;;;;;;19.17;10.95;;;;;;;6.76;64.99;100733.25;5089391;28;20035;-20
2022/01/15 08:38:12;;;;;;;22.80;13.88;;;;;;;6.93;65.04;100749.03;5070992;28;20023;-20
2022/01/15 08:40:37;;;;;;;20.42;12.48;;;;;;;7.01;62.60;100744.47;5070637;28;20602;-20
2022/01/15 08:43:03;;;;;;;20.90;12.13;;;;;;;7.20;63.26;100735.19;5088746;28;20073;-20
2022/01/15 08:45:28;;;;;;;18.63;11.35;;;;;;;7.56;62.60;100742.47;5088833;28;20043;-19
2022/01/15 08:47:54;;;;;;;39.33;23.52;;;;;;;7.75;62.23;100737.59;5089086;28;20059;-20
2022/01/15 08:50:20;;;;;;;20.60;12.05;;;;;;;7.57;60.38;100746.75;5088765;28;20480;-20
2022/01/15 08:52:45;;;;;;;26.17;15.05;;;;;;;7.51;62.50;100752.78;5088960;28;20063;-20
2022/01/15 08:55:11;;;;;;;21.48;12.32;;;;;;;7.81;60.88;100763.44;5088439;28;20047;-20
2022/01/15 08:57:36;;;;;;;27.63;15.38;;;;;;;7.99;60.63;100777.16;5088689;28;20572;-20
2022/01/15 09:00:04;;;;;;;150.15;68.20;;;;;;;8.09;61.42;100762.75;5070544;28;20066;-20
2022/01/15 09:02:29;;;;;;;36.45;21.30;;;;;;;8.31;62.12;100764.44;5070409;28;20096;-19
2022/01/15 09:04:54;;;;;;;27.33;16.63;;;;;;;8.32;62.25;100766.09;5088958;28;20039;-20
2022/01/15 09:07:20;;;;;;;29.42;18.42;;;;;;;8.52;63.10;100757.56;5088490;28;20038;-20
2022/01/15 09:09:45;;;;;;;34.63;20.60;;;;;;;8.44;64.04;100764.66;5087730;28;20035;-20
2022/01/15 09:12:15;;;;;;;28.98;17.13;;;;;;;8.62;62.74;100758.06;5088312;28;20518;-20
2022/01/15 09:14:41;;;;;;;26.35;16.30;;;;;;;8.49;61.18;100760.59;5088368;28;20036;-21
2022/01/15 09:17:06;;;;;;;25.80;12.48;;;;;;;8.64;60.87;100753.38;5088161;28;20031;-19
2022/01/15 09:19:33;;;;;;;28.08;16.17;;;;;;;8.66;62.58;100764.66;5088331;28;20056;-21
2022/01/15 09:21:58;;;;;;;16.10;9.82;;;;;;;8.63;60.63;100762.38;5087763;28;20038;-20
2022/01/15 09:24:24;;;;;;;20.23;12.20;;;;;;;8.90;60.10;100762.63;5087866;28;20032;-20
2022/01/15 09:32:02;;;;;;;22.55;13.77;;;;;;;8.89;61.13;100766.31;5087986;28;20031;-20
2022/01/15 09:34:28;;;;;;;28.10;16.02;;;;;;;8.92;62.23;100765.94;5087650;28;20024;-20
2022/01/15 09:36:53;;;;;;;19.55;11.73;;;;;;;8.71;61.99;100766.75;5069698;28;20479;-20
2022/01/15 09:39:20;;;;;;;19.15;11.88;;;;;;;8.71;62.29;100754.28;5069432;28;20028;-19
2022/01/15 09:41:47;;;;;;;19.52;11.73;;;;;;;8.87;61.89;100744.38;5069845;28;20088;-20
2022/01/15 09:44:16;;;;;;;30.95;16.55;;;;;;;9.00;60.43;100768.47;5069823;28;20039;-19
2022/01/15 09:46:41;;;;;;;29.35;14.82;;;;;;;9.00;60.13;100755.97;5087820;28;20070;-21
2022/01/15 09:49:07;;;;;;;30.33;16.63;;;;;;;9.02;60.62;100745.97;5069035;28;20024;-20
2022/01/15 09:51:33;;;;;;;14.25;9.80;;;;;;;8.58;59.70;100739.03;5069201;28;20119;-19
2022/01/15 09:53:59;;;;;;;17.10;10.00;;;;;;;8.80;57.93;100737.19;5087819;28;20089;-20
2022/01/15 09:56:24;;;;;;;18.92;11.07;;;;;;;8.90;57.18;100747.50;5087745;28;20032;-20
2022/01/15 09:58:49;;;;;;;19.27;11.23;;;;;;;8.99;58.03;100735.72;5069274;28;20027;-20
2022/01/15 10:01:15;;;;;;;20.35;11.50;;;;;;;9.05;57.41;100728.78;5087169;28;20532;-20
2022/01/15 10:03:40;;;;;;;19.40;11.98;;;;;;;9.37;57.79;100742.56;5087272;28;20489;-20
2022/01/15 10:06:06;;;;;;;17.40;10.45;;;;;;;9.07;58.67;100737.41;5087437;28;20028;-21
2022/01/15 10:08:31;;;;;;;20.52;12.05;;;;;;;8.90;59.18;100728.88;5069010;28;20036;-20
2022/01/15 10:10:58;;;;;;;26.85;15.18;;;;;;;9.14;59.86;100716.19;5059922;28;20033;-19
2022/01/15 10:13:30;;;;;;;74.82;31.67;;;;;;;9.37;59.34;100705.28;5063649;28;20040;-28
2022/01/15 10:15:55;;;;;;;23.13;13.15;;;;;;;10.05;56.99;100711.59;5087024;28;20055;-21
2022/01/15 10:18:24;;;;;;;25.30;14.57;;;;;;;10.57;54.09;100725.28;5084773;28;20047;-21
2022/01/15 10:20:50;;;;;;;16.88;10.77;;;;;;;10.53;52.98;100713.38;5060977;28;20072;-23
2022/01/15 10:23:17;;;;;;;20.60;13.13;;;;;;;10.14;53.59;100698.06;5057919;28;20029;-21
2022/01/15 10:25:42;;;;;;;16.52;10.40;;;;;;;9.69;54.20;100687.03;5052957;28;20032;-20
2022/01/15 10:28:09;;;;;;;16.35;9.05;;;;;;;9.62;52.91;100708.28;5070888;28;20094;-20
2022/01/15 10:30:35;;;;;;;14.65;9.75;;;;;;;10.05;54.11;100708.06;5052910;28;20028;-20
2022/01/15 10:33:00;;;;;;;35.10;19.00;;;;;;;10.35;51.57;100716.59;5070517;28;20043;-20
2022/01/15 10:35:30;;;;;;;37.70;19.83;;;;;;;10.55;50.38;100705.19;5071042;28;20025;-20
2022/01/15 10:38:15;;;;;;;20.30;10.85;;;;;;;10.81;47.61;100697.19;5070869;28;20060;-20
2022/01/15 10:40:44;;;;;;;22.60;12.88;;;;;;;11.17;48.49;100698.59;5052785;28;20090;-20
2022/01/15 10:43:10;;;;;;;16.80;11.05;;;;;;;10.19;51.18;100701.75;5070376;28;20036;-20
2022/01/15 10:45:49;;;;;;;15.25;9.15;;;;;;;10.37;50.59;100685.22;5070461;28;20074;-20
2022/01/15 10:48:27;;;;;;;16.10;9.20;;;;;;;10.60;51.40;100679.53;5070551;28;20527;-20
2022/01/15 10:51:03;;;;;;;20.17;11.20;;;;;;;10.55;51.65;100686.50;5070472;28;20036;-20
2022/01/15 10:53:35;;;;;;;16.02;9.63;;;;;;;10.84;52.67;100691.44;5070517;28;20540;-20
2022/01/15 10:56:01;;;;;;;22.95;13.77;;;;;;;10.86;51.52;100684.03;5070258;28;20031;-20
2022/01/15 10:58:27;;;;;;;18.38;12.60;;;;;;;10.60;51.54;100692.03;5052503;28;20039;-20
2022/01/15 11:00:53;;;;;;;22.02;12.80;;;;;;;10.30;51.53;100676.41;5052322;28;20044;-20
2022/01/15 11:03:18;;;;;;;15.52;10.20;;;;;;;10.57;51.52;100690.59;5052144;28;20086;-20
2022/01/15 11:05:48;;;;;;;17.08;10.88;;;;;;;11.06;52.45;100686.72;5070153;28;20119;-20
2022/01/15 11:08:26;;;;;;;16.20;10.63;;;;;;;11.11;51.56;100677.25;5070307;28;20111;-20
2022/01/15 11:11:03;;;;;;;15.40;10.18;;;;;;;11.13;50.94;100677.88;5037181;28;20047;-20
2022/01/15 11:13:30;;;;;;;16.38;9.88;;;;;;;10.83;50.94;100679.13;5052738;28;20032;-21
2022/01/15 11:15:58;;;;;;;17.33;10.98;;;;;;;10.88;51.19;100643.81;5051659;28;20047;-20
2022/01/15 11:18:25;;;;;;;17.42;10.90;;;;;;;11.10;51.12;100668.44;5069801;28;20049;-21
2022/01/15 11:20:53;;;;;;;15.52;10.32;;;;;;;11.41;50.55;100674.97;5062859;28;20045;-20
2022/01/15 11:23:20;;;;;;;16.08;9.32;;;;;;;11.47;49.21;100676.78;5067929;28;20032;-20
2022/01/15 11:25:46;;;;;;;16.02;10.35;;;;;;;11.06;50.28;100667.22;5079941;28;20065;-21
2022/01/15 11:28:12;;;;;;;14.27;8.40;;;;;;;10.98;50.09;100664.75;5109906;28;20034;-20
2022/01/15 11:30:37;;;;;;;18.02;10.93;;;;;;;11.31;50.47;100663.88;5091020;28;20465;-22
2022/01/15 11:33:03;;;;;;;15.80;11.00;;;;;;;11.76;49.17;100664.75;5108594;28;20035;-20
2022/01/15 11:35:44;;;;;;;16.83;10.00;;;;;;;11.61;48.57;100657.00;5109475;28;20491;-20